Time;durP1;ratioP1;P1;durP2;ratioP2;P2;SDS_P1;SDS_P2;PMS_P1;PMS_P2;Temp;Humidity;BMP_temperature;BMP_pressure;BME280_temperature;BME280_humidity;BME280_pressure;Samples;Min_cycle;Max_cycle;Signal;HPM_P1;HPM_P2
2021/09/17 00:02:16;;;;;;;29.98;22.35;;;14.00;99.90;;;;;;5050439;28;20048;-76
2021/09/17 00:04:41;;;;;;;27.98;21.83;;;14.00;99.90;;;;;;5057831;28;20051;-76
2021/09/17 00:07:14;;;;;;;27.23;21.73;;;13.90;99.90;;;;;;5059012;28;20064;-75
2021/09/17 00:09:40;;;;;;;26.02;20.17;;;13.90;99.90;;;;;;5072017;28;20079;-76
2021/09/17 00:12:06;;;;;;;36.30;24.90;;;14.00;99.90;;;;;;5048868;28;20483;-76
2021/09/17 00:14:32;;;;;;;24.63;21.48;;;13.90;99.90;;;;;;5078854;28;20036;-76
2021/09/17 00:16:58;;;;;;;23.98;19.75;;;13.90;99.90;;;;;;5059583;28;20090;-76
2021/09/17 00:19:24;;;;;;;23.95;19.25;;;13.90;99.90;;;;;;5037301;28;20136;-76
2021/09/17 00:21:52;;;;;;;35.75;25.17;;;13.90;99.90;;;;;;5042394;28;20052;-76
2021/09/17 00:24:21;;;;;;;24.42;20.90;;;13.90;99.90;;;;;;5048967;28;20112;-76
2021/09/17 00:26:49;;;;;;;25.50;19.35;;;13.90;99.90;;;;;;5045984;28;20055;-76
2021/09/17 00:29:15;;;;;;;31.08;22.08;;;13.90;99.90;;;;;;5058826;28;20126;-76
2021/09/17 00:31:41;;;;;;;26.83;20.15;;;13.80;99.90;;;;;;5055325;28;20049;-76
2021/09/17 00:34:07;;;;;;;34.30;22.92;;;13.80;99.90;;;;;;5064937;28;20036;-76
2021/09/17 00:36:36;;;;;;;33.00;23.70;;;13.80;99.90;;;;;;5068286;28;20056;-76
2021/09/17 00:39:04;;;;;;;36.10;25.48;;;13.80;99.90;;;;;;5041098;28;20131;-76
2021/09/17 00:41:30;;;;;;;48.05;30.17;;;13.80;99.90;;;;;;5046812;28;20035;-76
2021/09/17 00:43:56;;;;;;;66.88;27.90;;;13.70;99.90;;;;;;5053374;28;20123;-77
2021/09/17 00:46:22;;;;;;;34.58;24.70;;;13.70;99.90;;;;;;5067620;28;20524;-76
2021/09/17 00:48:47;;;;;;;55.35;28.63;;;13.70;99.90;;;;;;5051540;28;20049;-76
2021/09/17 00:51:14;;;;;;;60.05;26.67;;;13.70;99.90;;;;;;5064123;28;20494;-77
2021/09/17 00:53:40;;;;;;;47.55;26.67;;;13.70;99.90;;;;;;5070006;28;20041;-76
2021/09/17 00:56:06;;;;;;;57.65;27.15;;;13.60;99.90;;;;;;5075698;28;20110;-76
2021/09/17 00:58:32;;;;;;;51.75;28.23;;;13.60;99.90;;;;;;5048796;28;20051;-76
2021/09/17 01:00:58;;;;;;;37.85;24.52;;;13.60;99.90;;;;;;5069319;28;20641;-76
2021/09/17 01:03:25;;;;;;;39.58;26.88;;;13.60;99.90;;;;;;5048410;28;20044;-76
2021/09/17 01:05:51;;;;;;;42.83;27.05;;;13.50;99.90;;;;;;5068916;28;20033;-76
2021/09/17 01:08:17;;;;;;;24.50;19.35;;;13.50;99.90;;;;;;5083058;28;20040;-76
2021/09/17 01:10:43;;;;;;;53.25;28.65;;;13.50;99.90;;;;;;5080558;28;20113;-76
2021/09/17 01:13:10;;;;;;;37.08;24.13;;;13.50;99.90;;;;;;5081396;28;20047;-76
2021/09/17 01:15:36;;;;;;;36.95;25.52;;;13.50;99.90;;;;;;5070938;28;20047;-76
2021/09/17 01:18:05;;;;;;;39.13;23.20;;;13.50;99.90;;;;;;5081703;28;20444;-76
2021/09/17 01:20:31;;;;;;;24.58;21.20;;;13.40;99.90;;;;;;5079757;28;20564;-76
2021/09/17 01:22:56;;;;;;;56.20;28.15;;;13.40;99.90;;;;;;5087296;28;20044;-76
2021/09/17 01:25:22;;;;;;;47.15;26.35;;;13.30;99.90;;;;;;5079442;28;20048;-76
2021/09/17 01:27:50;;;;;;;34.35;23.08;;;13.30;99.90;;;;;;5084375;28;20046;-76
2021/09/17 01:30:17;;;;;;;47.78;27.52;;;13.30;99.90;;;;;;5065964;28;20079;-77
2021/09/17 01:32:51;;;;;;;47.05;28.13;;;13.20;99.90;;;;;;5077520;28;20056;-77
2021/09/17 01:35:18;;;;;;;61.10;27.83;;;13.30;99.90;;;;;;5080385;28;20117;-77
2021/09/17 01:37:51;;;;;;;28.20;21.58;;;13.20;99.90;;;;;;5079783;28;20067;-76
2021/09/17 01:40:26;;;;;;;50.90;28.15;;;13.20;99.90;;;;;;5051997;28;20051;-76
2021/09/17 01:42:52;;;;;;;45.70;26.92;;;13.10;99.90;;;;;;5075564;28;20101;-76
2021/09/17 01:45:18;;;;;;;34.40;24.15;;;13.10;99.90;;;;;;5055797;28;20398;-77
2021/09/17 01:47:44;;;;;;;23.92;19.67;;;13.10;99.90;;;;;;5051472;28;20048;-76
2021/09/17 01:50:10;;;;;;;32.17;22.20;;;13.10;99.90;;;;;;5083511;28;20044;-77
2021/09/17 01:52:37;;;;;;;30.17;23.33;;;13.10;99.90;;;;;;5083401;28;20048;-76
2021/09/17 01:55:06;;;;;;;24.58;19.30;;;13.10;99.90;;;;;;5078752;28;20052;-77
2021/09/17 01:57:35;;;;;;;44.22;24.33;;;13.10;99.90;;;;;;5046470;28;20043;-76
2021/09/17 02:00:10;;;;;;;26.90;21.60;;;13.10;99.90;;;;;;5081786;28;20475;-76
2021/09/17 02:02:36;;;;;;;55.85;29.58;;;13.10;99.90;;;;;;5069772;28;20076;-77
2021/09/17 02:05:06;;;;;;;25.17;20.75;;;13.10;99.90;;;;;;5071068;28;20090;-76
2021/09/17 02:07:32;;;;;;;24.40;18.48;;;13.10;99.90;;;;;;5072593;28;20040;-76
2021/09/17 02:09:58;;;;;;;19.90;17.80;;;13.10;99.90;;;;;;5089976;28;20047;-76
2021/09/17 02:12:24;;;;;;;24.13;20.33;;;13.10;99.90;;;;;;5064723;28;20052;-76
2021/09/17 02:14:50;;;;;;;22.10;19.45;;;13.10;99.90;;;;;;5082115;28;20036;-76
2021/09/17 02:17:16;;;;;;;20.00;16.10;;;13.10;99.90;;;;;;5075792;28;20084;-76
2021/09/17 02:19:42;;;;;;;21.35;18.70;;;13.10;99.90;;;;;;5069547;28;20125;-76
2021/09/17 02:22:08;;;;;;;20.58;18.38;;;13.10;99.90;;;;;;5086560;28;20044;-76
2021/09/17 02:24:34;;;;;;;28.90;16.88;;;13.00;99.90;;;;;;5072188;28;20402;-76
2021/09/17 02:27:00;;;;;;;21.10;16.85;;;13.00;99.90;;;;;;5074103;28;20036;-76
2021/09/17 02:29:26;;;;;;;16.73;14.70;;;12.90;99.90;;;;;;5041984;28;20048;-76
2021/09/17 02:31:52;;;;;;;21.33;16.95;;;12.90;99.90;;;;;;5049515;28;20519;-76
2021/09/17 02:34:18;;;;;;;17.77;15.48;;;12.90;99.90;;;;;;5082722;28;20036;-76
2021/09/17 02:36:44;;;;;;;31.27;21.13;;;12.90;99.90;;;;;;5056585;28;20051;-76
2021/09/17 02:39:13;;;;;;;52.88;28.52;;;12.90;99.90;;;;;;5067925;28;20047;-76
2021/09/17 02:41:40;;;;;;;37.33;25.67;;;12.90;99.90;;;;;;5064455;28;20506;-76
2021/09/17 02:44:05;;;;;;;35.22;24.70;;;12.90;99.90;;;;;;5068393;28;20295;-76
2021/09/17 02:46:31;;;;;;;30.45;22.48;;;12.90;99.90;;;;;;5090247;28;20530;-76
2021/09/17 02:48:57;;;;;;;35.95;23.33;;;12.90;99.90;;;;;;5048077;28;20135;-76
2021/09/17 02:51:23;;;;;;;25.85;21.50;;;12.90;99.90;;;;;;5090983;28;20040;-76
2021/09/17 02:53:49;;;;;;;23.05;20.20;;;12.90;99.90;;;;;;5071547;28;20043;-76
2021/09/17 02:56:15;;;;;;;40.10;26.30;;;12.90;99.90;;;;;;5066772;28;20031;-76
2021/09/17 02:58:44;;;;;;;36.42;25.73;;;13.00;99.90;;;;;;5051919;28;20044;-77
2021/09/17 03:01:10;;;;;;;25.92;21.38;;;13.00;99.90;;;;;;5079244;28;20036;-76
2021/09/17 03:03:36;;;;;;;48.65;29.40;;;12.90;99.90;;;;;;5065266;28;20405;-77
2021/09/17 03:06:02;;;;;;;51.28;30.58;;;13.00;99.90;;;;;;5075064;28;20062;-76
2021/09/17 03:08:28;;;;;;;25.75;21.80;;;13.00;99.90;;;;;;5087116;28;20044;-76
2021/09/17 03:10:57;;;;;;;26.38;21.75;;;13.00;99.90;;;;;;5071225;28;20397;-76
2021/09/17 03:13:25;;;;;;;23.63;19.10;;;13.10;99.90;;;;;;5073061;28;20113;-76
2021/09/17 03:15:51;;;;;;;29.65;21.20;;;13.10;99.90;;;;;;5071994;28;20040;-76
2021/09/17 03:18:20;;;;;;;24.65;20.20;;;13.10;99.90;;;;;;5063387;28;20047;-77
2021/09/17 03:20:49;;;;;;;39.65;23.38;;;13.10;99.90;;;;;;5082822;28;20047;-76
2021/09/17 03:23:18;;;;;;;20.38;16.38;;;13.10;99.90;;;;;;5062461;28;20041;-77
2021/09/17 03:25:44;;;;;;;20.10;17.50;;;13.10;99.90;;;;;;5080413;28;20048;-76
2021/09/17 03:28:10;;;;;;;38.05;26.10;;;13.10;99.90;;;;;;5065070;28;20079;-77
2021/09/17 03:30:36;;;;;;;25.33;20.92;;;13.10;99.90;;;;;;5068105;28;20079;-77
2021/09/17 03:33:02;;;;;;;25.25;21.20;;;13.10;99.90;;;;;;5078285;28;21095;-76
2021/09/17 03:35:28;;;;;;;23.48;20.88;;;13.10;99.90;;;;;;5046892;28;20040;-76
2021/09/17 03:37:54;;;;;;;46.28;28.27;;;13.10;99.90;;;;;;5044965;28;20829;-77
2021/09/17 03:40:20;;;;;;;62.53;29.10;;;13.10;99.90;;;;;;5033231;28;20040;-77
2021/09/17 03:42:46;;;;;;;25.08;20.70;;;13.10;99.90;;;;;;5046497;28;20028;-76
2021/09/17 03:45:12;;;;;;;26.63;22.83;;;13.10;99.90;;;;;;5040415;28;20093;-77
2021/09/17 03:47:39;;;;;;;61.13;30.45;;;13.10;99.90;;;;;;5024796;28;20491;-76
2021/09/17 03:50:06;;;;;;;46.65;28.02;;;13.20;99.90;;;;;;5069608;28;20056;-77
2021/09/17 03:52:32;;;;;;;57.80;34.10;;;13.20;99.90;;;;;;5025458;28;20032;-76
2021/09/17 03:54:58;;;;;;;96.70;39.65;;;13.20;99.90;;;;;;5043388;28;20048;-76
2021/09/17 03:57:24;;;;;;;64.15;35.35;;;13.20;99.90;;;;;;5049506;28;20438;-76
2021/09/17 03:59:50;;;;;;;87.47;36.70;;;13.30;99.90;;;;;;5061812;28;20032;-76
2021/09/17 04:02:16;;;;;;;40.90;30.17;;;13.30;99.90;;;;;;5042809;28;20121;-76
2021/09/17 04:04:43;;;;;;;43.35;31.50;;;13.30;99.90;;;;;;5046206;28;20381;-76
2021/09/17 04:07:09;;;;;;;90.68;37.13;;;13.30;99.90;;;;;;5013867;28;20059;-76
2021/09/17 04:09:35;;;;;;;79.25;37.50;;;13.30;99.90;;;;;;5039866;28;20086;-76
2021/09/17 04:12:01;;;;;;;42.85;31.33;;;13.30;99.90;;;;;;5029238;28;20438;-76
2021/09/17 04:14:27;;;;;;;92.55;36.53;;;13.30;99.90;;;;;;5057037;28;20063;-76
2021/09/17 04:16:54;;;;;;;70.03;36.03;;;13.40;99.90;;;;;;5040690;28;20040;-76
2021/09/17 04:19:20;;;;;;;125.05;39.40;;;13.40;99.90;;;;;;5058735;28;20064;-77
2021/09/17 04:21:46;;;;;;;65.78;34.10;;;13.40;99.90;;;;;;5043713;28;20580;-76
2021/09/17 04:24:15;;;;;;;42.10;30.83;;;13.40;99.90;;;;;;5052402;28;20097;-76
2021/09/17 04:26:41;;;;;;;43.88;30.70;;;13.30;99.90;;;;;;5040513;28;20059;-76
2021/09/17 04:29:07;;;;;;;52.25;34.25;;;13.30;99.90;;;;;;5044737;28;20044;-75
2021/09/17 04:31:36;;;;;;;46.00;34.17;;;13.30;99.90;;;;;;5026887;28;20040;-76
2021/09/17 04:34:02;;;;;;;111.15;43.47;;;13.40;99.90;;;;;;5048734;28;20546;-75
2021/09/17 04:36:28;;;;;;;37.35;30.67;;;13.40;99.90;;;;;;5044929;28;20131;-76
2021/09/17 04:38:54;;;;;;;37.72;30.23;;;13.40;99.90;;;;;;5050801;28;20062;-76
2021/09/17 04:41:20;;;;;;;39.80;30.92;;;13.40;99.90;;;;;;5066854;28;20075;-76
2021/09/17 04:43:49;;;;;;;58.08;37.45;;;13.40;99.90;;;;;;5060390;28;20067;-76
2021/09/17 04:46:15;;;;;;;57.95;35.70;;;13.40;99.90;;;;;;5069371;28;20051;-76
2021/09/17 04:48:41;;;;;;;36.30;29.17;;;13.40;99.90;;;;;;5066805;28;20041;-75
2021/09/17 04:51:09;;;;;;;34.25;28.02;;;13.40;99.90;;;;;;5077446;28;20044;-75
2021/09/17 04:53:35;;;;;;;33.50;28.77;;;13.40;99.90;;;;;;5085964;28;20039;-75
2021/09/17 04:56:01;;;;;;;48.20;35.65;;;13.40;99.90;;;;;;5076753;28;20040;-75
2021/09/17 04:58:28;;;;;;;68.05;39.38;;;13.40;99.90;;;;;;5069651;28;20705;-75
2021/09/17 05:00:56;;;;;;;82.97;39.35;;;13.40;99.90;;;;;;5067424;28;20608;-75
2021/09/17 05:03:22;;;;;;;47.72;33.47;;;13.40;99.90;;;;;;5062560;28;20047;-76
2021/09/17 05:05:48;;;;;;;129.68;49.03;;;13.40;99.90;;;;;;5076007;28;20040;-75
2021/09/17 05:08:14;;;;;;;101.72;45.17;;;13.40;99.90;;;;;;5067467;28;20187;-76
2021/09/17 05:10:40;;;;;;;46.05;33.40;;;13.40;99.90;;;;;;5085306;28;20040;-76
2021/09/17 05:13:06;;;;;;;42.63;33.78;;;13.40;99.90;;;;;;5073007;28;20048;-75
2021/09/17 05:15:32;;;;;;;53.90;38.50;;;13.40;99.90;;;;;;5067671;28;20043;-75
2021/09/17 05:17:58;;;;;;;86.85;44.25;;;13.40;99.90;;;;;;5055451;28;20495;-75
2021/09/17 05:20:24;;;;;;;68.57;40.80;;;13.50;99.90;;;;;;5085459;28;20448;-75
2021/09/17 05:22:50;;;;;;;54.65;36.63;;;13.40;99.90;;;;;;5065838;28;20624;-76
2021/09/17 05:25:16;;;;;;;66.82;39.08;;;13.50;99.90;;;;;;5084155;28;20040;-76
2021/09/17 05:27:45;;;;;;;57.83;39.22;;;13.50;99.90;;;;;;5088400;28;20039;-75
2021/09/17 05:30:11;;;;;;;97.65;44.45;;;13.50;99.90;;;;;;5069352;28;20036;-76
2021/09/17 05:32:37;;;;;;;53.53;37.08;;;13.50;99.90;;;;;;5060933;28;20092;-76
2021/09/17 05:35:04;;;;;;;35.38;29.60;;;13.50;99.90;;;;;;5059280;28;20044;-76
2021/09/17 05:37:30;;;;;;;46.03;36.03;;;13.50;99.90;;;;;;5062147;28;20140;-76
2021/09/17 05:39:57;;;;;;;55.40;38.17;;;13.60;99.90;;;;;;5058165;27;20039;-76
2021/09/17 05:42:23;;;;;;;95.22;45.70;;;13.50;99.90;;;;;;5062074;28;20296;-76
2021/09/17 05:44:49;;;;;;;38.20;31.05;;;13.60;99.90;;;;;;5076471;28;20088;-76
2021/09/17 05:47:15;;;;;;;37.17;32.40;;;13.60;99.90;;;;;;5086419;27;20050;-76
2021/09/17 05:49:42;;;;;;;94.18;45.40;;;13.60;99.90;;;;;;5077623;27;20127;-76
2021/09/17 05:52:08;;;;;;;42.65;35.13;;;13.60;99.90;;;;;;5066741;28;20074;-75
2021/09/17 05:54:38;;;;;;;67.15;40.92;;;13.70;99.90;;;;;;5081468;28;20048;-76
2021/09/17 05:57:04;;;;;;;;;;;13.70;99.90;;;;;;5056768;28;20043;-76
2021/09/17 05:59:30;;;;;;;40.75;35.25;;;13.70;99.90;;;;;;5058141;28;19924;-76
2021/09/17 06:01:56;;;;;;;49.00;38.63;;;13.70;99.90;;;;;;5086287;28;20028;-76
2021/09/17 06:04:22;;;;;;;95.07;46.45;;;13.70;99.90;;;;;;5070139;27;20524;-77
2021/09/17 06:06:48;;;;;;;78.43;43.65;;;13.80;99.90;;;;;;5081915;28;20032;-76
2021/09/17 06:09:14;;;;;;;74.63;43.22;;;13.80;99.90;;;;;;5045735;28;20055;-76
2021/09/17 06:11:40;;;;;;;82.70;45.10;;;13.80;99.90;;;;;;5063824;27;20047;-77
2021/09/17 06:14:06;;;;;;;70.05;42.60;;;13.90;99.90;;;;;;5052523;28;20055;-77
2021/09/17 06:16:35;;;;;;;61.00;40.15;;;13.90;99.90;;;;;;5064751;28;20127;-76
2021/09/17 06:19:02;;;;;;;44.60;35.47;;;13.90;99.90;;;;;;5084850;28;20085;-76
2021/09/17 06:21:36;;;;;;;43.47;35.33;;;13.90;99.90;;;;;;5068369;28;20048;-76
2021/09/17 06:24:03;;;;;;;46.40;36.83;;;13.90;99.90;;;;;;5086205;28;20263;-75
2021/09/17 06:26:32;;;;;;;47.10;36.92;;;13.90;99.90;;;;;;5072824;27;20077;-76
2021/09/17 06:29:04;;;;;;;78.60;42.30;;;13.90;99.90;;;;;;5057192;28;20068;-76
2021/09/17 06:31:31;;;;;;;58.00;39.03;;;13.90;99.90;;;;;;5084142;27;20131;-75
2021/09/17 06:33:57;;;;;;;43.00;36.10;;;14.00;99.90;;;;;;5077576;28;20036;-76
2021/09/17 06:36:23;;;;;;;49.58;37.85;;;14.00;99.90;;;;;;5071705;28;20120;-76
2021/09/17 06:38:49;;;;;;;45.92;35.38;;;14.10;99.90;;;;;;5079890;28;20052;-76
2021/09/17 06:41:15;;;;;;;46.13;37.22;;;14.10;99.90;;;;;;5064448;28;20042;-76
2021/09/17 06:43:41;;;;;;;44.85;35.45;;;14.10;99.90;;;;;;5069845;28;20043;-76
2021/09/17 06:46:07;;;;;;;62.72;42.03;;;14.10;99.90;;;;;;5063004;27;20046;-76
2021/09/17 06:48:33;;;;;;;60.05;41.58;;;14.20;99.90;;;;;;5084610;28;20383;-76
2021/09/17 06:51:00;;;;;;;39.83;33.00;;;14.20;99.90;;;;;;5072364;28;21020;-76
2021/09/17 06:53:26;;;;;;;42.53;36.20;;;14.30;99.90;;;;;;5077808;28;20079;-76
2021/09/17 06:55:52;;;;;;;51.95;38.92;;;14.30;99.90;;;;;;5074812;28;20042;-76
2021/09/17 06:58:18;;;;;;;46.25;35.25;;;14.40;99.90;;;;;;5050148;28;20100;-75
2021/09/17 07:00:47;;;;;;;64.75;42.67;;;14.40;99.90;;;;;;5049382;28;20478;-75
2021/09/17 07:03:13;;;;;;;43.72;36.38;;;14.50;99.90;;;;;;5081408;28;20047;-76
2021/09/17 07:05:39;;;;;;;56.95;40.70;;;14.60;99.90;;;;;;5050668;28;20032;-76
2021/09/17 07:08:08;;;;;;;42.65;35.72;;;14.60;99.90;;;;;;5074559;28;20040;-76
2021/09/17 07:10:39;;;;;;;50.78;38.65;;;14.70;99.90;;;;;;5058395;28;20051;-76
2021/09/17 07:13:06;;;;;;;37.55;32.80;;;14.80;99.90;;;;;;5060746;28;20079;-76
2021/09/17 07:15:36;;;;;;;55.72;40.17;;;14.90;99.90;;;;;;5074550;28;20047;-76
2021/09/17 07:18:06;;;;;;;46.80;37.97;;;14.90;99.90;;;;;;5082095;28;20122;-77
2021/09/17 07:20:36;;;;;;;;;;;15.00;99.90;;;;;;5059998;28;20044;-76
2021/09/17 07:23:03;;;;;;;44.70;36.60;;;15.00;99.90;;;;;;5071534;28;20377;-76
2021/09/17 07:25:33;;;;;;;57.25;40.25;;;15.00;99.90;;;;;;5067127;28;20485;-77
2021/09/17 07:28:00;;;;;;;55.63;38.50;;;15.00;99.90;;;;;;5060339;27;20044;-76
2021/09/17 07:30:35;;;;;;;61.10;40.60;;;15.10;99.90;;;;;;5060981;28;20062;-76
2021/09/17 07:33:02;;;;;;;56.08;40.20;;;15.10;99.90;;;;;;5061565;27;20903;-76
2021/09/17 07:35:28;;;;;;;56.30;40.05;;;15.10;99.90;;;;;;5087102;27;20622;-76
2021/09/17 07:37:54;;;;;;;40.63;31.17;;;15.10;99.90;;;;;;5071026;28;20066;-75
2021/09/17 07:40:20;;;;;;;43.13;35.40;;;15.20;99.90;;;;;;5057378;28;20048;-76
2021/09/17 07:42:48;;;;;;;45.63;36.03;;;15.20;99.90;;;;;;5065537;28;20035;-76
2021/09/17 07:45:15;;;;;;;57.47;40.53;;;15.30;99.90;;;;;;5079622;28;20044;-76
2021/09/17 07:47:41;;;;;;;39.78;32.67;;;15.30;99.90;;;;;;5076443;28;20134;-77
2021/09/17 07:50:10;;;;;;;50.10;38.30;;;15.30;99.90;;;;;;5076442;27;20422;-76
2021/09/17 07:52:36;;;;;;;58.55;40.97;;;15.40;99.90;;;;;;5061780;27;20048;-76
2021/09/17 07:55:07;;;;;;;38.83;32.50;;;15.40;99.90;;;;;;5075965;27;20032;-76
2021/09/17 07:57:36;;;;;;;52.65;37.80;;;15.40;99.90;;;;;;5062229;28;20032;-77
2021/09/17 08:00:05;;;;;;;44.50;34.38;;;15.50;99.90;;;;;;5049002;28;20075;-76
2021/09/17 08:02:30;;;;;;;38.25;31.85;;;15.50;99.90;;;;;;5056736;28;20056;-76
2021/09/17 08:04:56;;;;;;;39.10;29.88;;;15.50;99.90;;;;;;5056545;28;20429;-76
2021/09/17 08:07:31;;;;;;;49.75;38.17;;;15.60;99.90;;;;;;5043263;28;20131;-77
2021/09/17 08:09:57;;;;;;;44.30;37.00;;;15.70;99.90;;;;;;5088636;28;20051;-77
2021/09/17 08:12:23;;;;;;;39.53;31.05;;;15.80;99.90;;;;;;5068836;28;20625;-76
2021/09/17 08:14:49;;;;;;;46.42;36.05;;;15.80;99.90;;;;;;5070979;28;20047;-77
2021/09/17 08:17:15;;;;;;;48.72;37.15;;;15.90;99.90;;;;;;5083566;28;20048;-77
2021/09/17 08:19:41;;;;;;;45.00;35.78;;;15.90;99.90;;;;;;5066959;28;20087;-76
2021/09/17 08:22:10;;;;;;;41.92;32.95;;;15.90;99.90;;;;;;5072609;28;20054;-76
2021/09/17 08:24:36;;;;;;;36.45;30.05;;;15.90;99.90;;;;;;5083562;28;20059;-76
2021/09/17 08:27:03;;;;;;;37.60;32.88;;;15.90;99.90;;;;;;5092879;28;20047;-76
2021/09/17 08:29:31;;;;;;;48.85;38.25;;;16.00;99.90;;;;;;5065890;28;20031;-76
2021/09/17 08:32:01;;;;;;;46.25;37.03;;;16.00;99.90;;;;;;5066378;28;20727;-76
2021/09/17 08:34:27;;;;;;;49.13;37.25;;;16.00;99.90;;;;;;5063244;28;20040;-76
2021/09/17 08:36:53;;;;;;;42.53;35.08;;;16.10;99.90;;;;;;5048698;28;20109;-76
2021/09/17 08:39:19;;;;;;;43.00;34.28;;;16.10;99.90;;;;;;5078840;28;20044;-76
2021/09/17 08:41:46;;;;;;;47.65;37.03;;;16.20;99.90;;;;;;5063819;28;20123;-76
2021/09/17 08:44:12;;;;;;;44.17;36.35;;;16.20;99.90;;;;;;5074510;28;20052;-76
2021/09/17 08:46:43;;;;;;;37.38;30.83;;;16.30;99.90;;;;;;5075485;28;20134;-76
2021/09/17 08:49:12;;;;;;;41.05;34.85;;;16.40;99.90;;;;;;5056902;28;20048;-76
2021/09/17 08:51:38;;;;;;;39.70;34.97;;;16.40;99.90;;;;;;5052528;28;20040;-76
2021/09/17 08:54:04;;;;;;;37.08;31.40;;;16.40;99.90;;;;;;5075793;28;20047;-76
2021/09/17 08:56:32;;;;;;;41.65;34.58;;;16.50;99.90;;;;;;5046726;28;20036;-75
2021/09/17 08:58:59;;;;;;;33.83;30.15;;;16.50;99.90;;;;;;5077074;28;20035;-75
2021/09/17 09:01:27;;;;;;;38.95;33.75;;;16.60;99.90;;;;;;5041791;28;20205;-76
2021/09/17 09:03:59;;;;;;;40.50;33.92;;;16.60;99.90;;;;;;5058402;28;20149;-75
2021/09/17 09:06:27;;;;;;;38.58;32.15;;;16.60;99.90;;;;;;5067202;28;20043;-75
2021/09/17 09:08:55;;;;;;;33.03;29.10;;;16.60;99.90;;;;;;5058936;28;20481;-75
2021/09/17 09:11:26;;;;;;;32.38;28.88;;;16.70;99.90;;;;;;5065518;28;20054;-75
2021/09/17 09:14:06;;;;;;;35.13;31.15;;;16.70;99.90;;;;;;5058011;28;20511;-75
2021/09/17 09:16:37;;;;;;;35.35;30.13;;;16.70;99.90;;;;;;5045140;28;20078;-75
2021/09/17 09:19:37;;;;;;;37.97;32.13;;;16.70;99.90;;;;;;5051533;28;20039;-75
2021/09/17 09:22:09;;;;;;;;;;;16.80;99.90;;;;;;5041730;28;20066;-76
2021/09/17 09:24:44;;;;;;;35.75;29.75;;;16.80;99.90;;;;;;5062949;28;19920;-76
2021/09/17 09:27:12;;;;;;;34.70;29.08;;;16.90;99.90;;;;;;5056622;28;20036;-75
2021/09/17 09:29:41;;;;;;;29.05;25.33;;;16.90;99.90;;;;;;5060896;28;20143;-75
2021/09/17 09:32:27;;;;;;;30.92;27.73;;;17.00;99.90;;;;;;5071457;28;20624;-77
2021/09/17 09:35:08;;;;;;;35.40;31.08;;;17.00;99.90;;;;;;5063043;28;20131;-77
2021/09/17 09:37:40;;;;;;;31.05;27.67;;;17.10;99.90;;;;;;5048290;28;20538;-77
2021/09/17 09:40:17;;;;;;;31.95;27.67;;;17.10;99.90;;;;;;5055015;28;20521;-77
2021/09/17 09:42:45;;;;;;;31.77;28.38;;;17.20;99.90;;;;;;5077442;28;20054;-77
2021/09/17 09:45:21;;;;;;;28.95;25.95;;;17.20;99.90;;;;;;5056645;28;20114;-77
2021/09/17 09:47:52;;;;;;;28.98;25.42;;;17.30;99.90;;;;;;5062341;28;20100;-77
2021/09/17 09:50:24;;;;;;;26.85;23.98;;;17.30;99.90;;;;;;5056236;28;20519;-77
2021/09/17 09:52:52;;;;;;;28.20;23.25;;;17.30;99.90;;;;;;5078636;28;20533;-77
2021/09/17 09:55:21;;;;;;;23.95;21.02;;;17.30;99.90;;;;;;5064648;28;20976;-77
2021/09/17 09:57:47;;;;;;;26.42;23.60;;;17.40;99.90;;;;;;5045681;28;20486;-77
2021/09/17 10:00:15;;;;;;;25.92;23.25;;;17.50;99.90;;;;;;5058977;28;20405;-77
2021/09/17 10:02:43;;;;;;;25.40;22.70;;;17.50;99.90;;;;;;5058294;28;20069;-77
2021/09/17 10:05:12;;;;;;;26.23;22.35;;;17.50;99.90;;;;;;5082727;28;20158;-77
2021/09/17 10:07:43;;;;;;;22.63;20.13;;;17.60;99.90;;;;;;5064691;28;20044;-75
2021/09/17 10:10:15;;;;;;;20.52;18.05;;;17.60;99.90;;;;;;5079829;28;20075;-75
2021/09/17 10:12:44;;;;;;;22.15;19.85;;;17.70;99.90;;;;;;5064569;28;20570;-75
2021/09/17 10:15:11;;;;;;;23.33;20.90;;;17.80;99.90;;;;;;5066747;28;20132;-76
2021/09/17 10:17:39;;;;;;;23.58;21.38;;;17.90;99.90;;;;;;5057642;27;20047;-77
2021/09/17 10:20:08;;;;;;;23.77;21.38;;;18.00;99.90;;;;;;5048542;28;20040;-75
2021/09/17 10:22:39;;;;;;;25.60;20.77;;;18.20;99.90;;;;;;5073926;28;20157;-75
2021/09/17 10:25:16;;;;;;;20.95;18.73;;;18.40;99.90;;;;;;5077690;28;20047;-74
2021/09/17 10:27:45;;;;;;;21.42;19.00;;;18.40;99.90;;;;;;5079944;27;20176;-75
2021/09/17 10:30:28;;;;;;;18.20;16.30;;;18.40;99.90;;;;;;5079247;28;20427;-75
2021/09/17 10:32:57;;;;;;;12.68;11.25;;;18.40;99.90;;;;;;5050629;28;20154;-77
2021/09/17 10:35:44;;;;;;;14.05;10.75;;;18.40;99.90;;;;;;5051052;28;20093;-78
2021/09/17 10:38:27;;;;;;;14.35;11.70;;;18.40;99.90;;;;;;5070598;28;21884;-75
2021/09/17 10:41:05;;;;;;;13.35;12.02;;;18.40;99.90;;;;;;5050228;28;20036;-77
2021/09/17 10:43:46;;;;;;;13.95;12.05;;;18.30;99.90;;;;;;5069635;28;20559;-78
2021/09/17 10:46:17;;;;;;;;;;;18.30;99.90;;;;;;5053299;28;20186;-77
2021/09/17 10:48:51;;;;;;;16.83;14.80;;;18.30;99.90;;;;;;5047384;28;19977;-76
2021/09/17 10:51:35;;;;;;;16.98;15.27;;;18.40;99.90;;;;;;5060799;28;20424;-76
2021/09/17 10:54:04;;;;;;;17.17;15.48;;;18.40;99.90;;;;;;5053643;28;20048;-76
2021/09/17 10:56:50;;;;;;;19.00;17.05;;;18.50;99.90;;;;;;5072509;28;20071;-76
2021/09/17 10:59:25;;;;;;;16.15;14.55;;;18.50;99.90;;;;;;5069609;28;20044;-76
2021/09/17 11:02:02;;;;;;;14.70;13.07;;;18.50;99.90;;;;;;5069706;28;20498;-77
2021/09/17 11:04:29;;;;;;;16.08;13.65;;;18.50;99.90;;;;;;5051604;28;20036;-76
2021/09/17 11:07:16;;;;;;;18.10;16.27;;;18.50;99.90;;;;;;5050529;28;20453;-77
2021/09/17 11:09:52;;;;;;;18.63;16.63;;;18.50;99.90;;;;;;5052937;28;20048;-76
2021/09/17 11:12:30;;;;;;;18.70;16.80;;;18.50;99.90;;;;;;5081572;28;20807;-76
2021/09/17 11:15:16;;;;;;;17.98;16.15;;;18.50;99.90;;;;;;5069481;28;20216;-76
2021/09/17 11:17:45;;;;;;;17.02;15.23;;;18.60;99.90;;;;;;5066627;28;20509;-76
2021/09/17 11:20:23;;;;;;;16.65;14.32;;;18.60;99.90;;;;;;5063272;28;20052;-76
2021/09/17 11:22:56;;;;;;;20.35;18.10;;;18.80;99.90;;;;;;5069798;28;20514;-76
2021/09/17 11:25:25;;;;;;;19.23;17.20;;;19.00;99.90;;;;;;5069577;28;20056;-75
2021/09/17 11:27:52;;;;;;;20.33;18.05;;;19.30;99.90;;;;;;5071337;28;20050;-75
2021/09/17 11:30:26;;;;;;;15.88;14.18;;;19.30;99.90;;;;;;5048473;28;20048;-75
2021/09/17 11:32:59;;;;;;;18.13;16.23;;;19.40;99.90;;;;;;5067211;28;20502;-75
2021/09/17 11:35:25;;;;;;;14.68;13.18;;;19.50;99.90;;;;;;5058844;28;20596;-75
2021/09/17 11:38:01;;;;;;;15.05;13.45;;;19.60;99.90;;;;;;5059749;28;20113;-76
2021/09/17 11:40:27;;;;;;;16.35;14.65;;;19.70;99.90;;;;;;5049824;28;20139;-75
2021/09/17 11:42:55;;;;;;;15.48;13.95;;;19.70;99.90;;;;;;5078766;28;20122;-76
2021/09/17 11:45:23;;;;;;;17.38;15.68;;;19.80;99.90;;;;;;5076109;28;20051;-75
2021/09/17 11:47:52;;;;;;;17.92;16.02;;;19.80;99.90;;;;;;5057803;28;20040;-75
2021/09/17 11:50:27;;;;;;;17.38;15.57;;;19.80;99.90;;;;;;5069965;28;20457;-75
2021/09/17 11:52:53;;;;;;;16.67;15.05;;;19.70;99.90;;;;;;5077656;28;20043;-76
2021/09/17 11:55:27;;;;;;;13.18;11.45;;;19.60;99.90;;;;;;5051285;28;20047;-76
2021/09/17 11:57:56;;;;;;;15.85;14.23;;;19.50;99.90;;;;;;5066555;28;20044;-75
2021/09/17 12:00:26;;;;;;;14.50;12.07;;;19.50;99.60;;;;;;5066202;28;20039;-76
2021/09/17 12:03:06;;;;;;;14.35;12.88;;;19.40;99.90;;;;;;5052138;28;20074;-76
2021/09/17 12:06:06;;;;;;;14.27;12.88;;;19.50;99.80;;;;;;5062946;28;20088;-76
2021/09/17 12:08:42;;;;;;;15.32;13.65;;;19.40;99.90;;;;;;5055787;28;20047;-76
2021/09/17 12:11:08;;;;;;;14.05;12.55;;;19.40;99.90;;;;;;5060649;28;20066;-77
2021/09/17 12:13:34;;;;;;;12.73;11.32;;;19.40;99.80;;;;;;5061382;28;20181;-77
2021/09/17 12:16:06;;;;;;;12.85;11.55;;;19.40;99.80;;;;;;5054427;28;20043;-76
2021/09/17 12:18:32;;;;;;;14.73;12.63;;;19.40;99.00;;;;;;5069702;28;20036;-76
2021/09/17 12:21:06;;;;;;;12.95;11.65;;;19.40;99.40;;;;;;5056156;28;20040;-76
2021/09/17 12:23:36;;;;;;;12.70;11.40;;;19.40;99.50;;;;;;5052341;28;20063;-76
2021/09/17 12:26:11;;;;;;;10.55;9.52;;;19.40;99.70;;;;;;5070483;28;20123;-76
2021/09/17 12:28:40;;;;;;;13.63;10.65;;;19.40;99.50;;;;;;5079545;28;20043;-75
2021/09/17 12:31:08;;;;;;;13.88;11.70;;;19.40;99.20;;;;;;5058561;28;20043;-76
2021/09/17 12:33:40;;;;;;;11.80;10.60;;;19.50;98.80;;;;;;5070647;28;20094;-76
2021/09/17 12:36:10;;;;;;;12.63;11.32;;;19.50;98.70;;;;;;5040751;28;20498;-76